Time;durP1;ratioP1;P1;durP2;ratioP2;P2;SDS_P1;SDS_P2;PMS_P1;PMS_P2;Temp;Humidity;BMP_temperature;BMP_pressure;BME280_temperature;BME280_humidity;BME280_pressure;Samples;Min_cycle;Max_cycle;Signal;HPM_P1;HPM_P2
2022/02/11 00:04:55;;;;;;;1.57;1.30;;;6.70;98.00;;;;;;5069114;28;20455;-64
2022/02/11 00:07:23;;;;;;;1.20;1.10;;;6.70;98.00;;;;;;5071625;28;20542;-65
2022/02/11 00:09:50;;;;;;;1.70;1.60;;;6.70;98.00;;;;;;5071343;28;20451;-65
2022/02/11 00:12:17;;;;;;;1.20;1.10;;;6.80;98.00;;;;;;5071504;28;21054;-65
2022/02/11 00:14:52;;;;;;;1.20;1.07;;;6.80;98.00;;;;;;5071393;28;21110;-65
2022/02/11 00:17:20;;;;;;;1.97;1.87;;;7.00;98.00;;;;;;5071228;28;20490;-64
2022/02/11 00:19:48;;;;;;;1.53;1.43;;;7.00;98.00;;;;;;5071416;28;20496;-64
2022/02/11 00:22:15;;;;;;;1.60;1.57;;;7.10;98.00;;;;;;5052996;28;20458;-65
2022/02/11 00:24:44;;;;;;;1.20;1.00;;;7.10;98.00;;;;;;5070698;28;20495;-65
2022/02/11 00:32:48;;;;;;;2.80;1.30;;;7.00;98.00;;;;;;5070516;28;20444;-64
2022/02/11 00:35:25;;;;;;;1.87;1.63;;;6.90;98.00;;;;;;5071167;28;20484;-65
2022/02/11 00:37:53;;;;;;;1.60;1.20;;;6.90;98.00;;;;;;5071547;28;20535;-64
2022/02/11 00:40:33;;;;;;;1.60;1.30;;;6.80;98.00;;;;;;5071148;28;20878;-64
2022/02/11 00:46:08;;;;;;;1.20;1.00;;;6.70;98.00;;;;;;5046287;28;20900;-66
2022/02/11 01:02:28;;;;;;;1.77;1.50;;;7.10;98.00;;;;;;5059297;28;20492;-65
2022/02/11 01:04:57;;;;;;;1.63;1.57;;;7.00;98.00;;;;;;5056493;28;20454;-65
2022/02/11 01:07:32;;;;;;;2.53;1.87;;;7.10;98.00;;;;;;5074164;28;20455;-65
2022/02/11 01:09:59;;;;;;;1.40;1.40;;;7.00;98.00;;;;;;5074345;28;20804;-65
2022/02/11 01:12:28;;;;;;;1.57;1.40;;;7.00;98.00;;;;;;5074186;28;20878;-64
2022/02/11 01:14:55;;;;;;;1.20;1.10;;;7.00;98.00;;;;;;5056738;28;20503;-65
2022/02/11 01:17:30;;;;;;;1.20;1.03;;;7.00;98.00;;;;;;5074000;28;20487;-65
2022/02/11 01:20:04;;;;;;;2.13;1.67;;;6.80;98.00;;;;;;5074069;28;20456;-64
2022/02/11 01:22:48;;;;;;;1.20;1.07;;;6.90;98.00;;;;;;5074147;28;20535;-64
2022/02/11 01:25:53;;;;;;;1.50;1.40;;;6.90;98.00;;;;;;5073873;28;20453;-65
2022/02/11 01:28:35;;;;;;;1.20;1.00;;;;;;;;;;5073717;28;20479;-64
2022/02/11 01:31:11;;;;;;;2.17;1.20;;;7.00;98.00;;;;;;5074019;28;21121;-64
2022/02/11 01:36:55;;;;;;;1.20;1.10;;;7.10;98.00;;;;;;5048718;28;20469;-65
2022/02/11 01:50:45;;;;;;;1.30;1.17;;;7.10;98.00;;;;;;5072023;28;21152;-64
2022/02/11 01:53:23;;;;;;;1.23;1.07;;;7.10;98.00;;;;;;5073903;28;20512;-64
2022/02/11 02:10:14;;;;;;;1.83;1.47;;;6.90;98.00;;;;;;5058181;28;20461;-64
2022/02/11 02:26:59;;;;;;;1.33;1.30;;;6.90;98.00;;;;;;5047523;28;20801;-65
2022/02/11 02:38:20;;;;;;;1.20;1.20;;;7.00;98.00;;;;;;5058193;28;20491;-64
2022/02/11 02:57:40;;;;;;;1.80;1.47;;;6.90;98.00;;;;;;5057305;28;20523;-64
2022/02/11 03:48:37;;;;;;;1.20;1.17;;;6.20;98.00;;;;;;5071656;28;20446;-65
2022/02/11 04:20:51;;;;;;;1.10;1.00;;;4.90;98.00;;;;;;5071404;28;20484;-64
2022/02/11 04:56:41;;;;;;;1.10;0.90;;;4.10;98.00;;;;;;5024976;28;20465;-65
2022/02/11 05:01:53;;;;;;;1.10;1.00;;;3.90;98.00;;;;;;5074681;28;20444;-65
2022/02/11 05:04:21;;;;;;;1.10;1.00;;;3.90;98.00;;;;;;5056402;28;20857;-65
2022/02/11 05:06:48;;;;;;;1.10;1.10;;;3.90;98.00;;;;;;5074358;28;20543;-64
2022/02/11 05:09:16;;;;;;;1.10;1.00;;;3.90;98.00;;;;;;5074244;28;20925;-65
2022/02/11 05:11:45;;;;;;;1.47;1.40;;;3.80;98.00;;;;;;5074025;28;20453;-65
2022/02/11 05:14:13;;;;;;;1.10;0.90;;;3.70;98.00;;;;;;5074008;28;20864;-64
2022/02/11 05:16:40;;;;;;;1.10;1.00;;;3.70;98.00;;;;;;5074326;28;20483;-64
2022/02/11 05:19:07;;;;;;;1.10;0.97;;;3.80;98.00;;;;;;5074099;28;20465;-64
2022/02/11 05:21:35;;;;;;;3.73;1.70;;;3.70;98.00;;;;;;5074006;28;20558;-64
2022/02/11 05:24:02;;;;;;;1.50;1.30;;;3.60;98.00;;;;;;5073902;28;20495;-65
2022/02/11 05:26:30;;;;;;;1.10;1.07;;;3.60;98.00;;;;;;5074202;28;20508;-64
2022/02/11 05:28:58;;;;;;;1.10;1.00;;;3.60;98.00;;;;;;5073631;28;20475;-63
2022/02/11 05:31:25;;;;;;;1.10;1.00;;;3.60;98.00;;;;;;5073860;28;20460;-64
2022/02/11 05:33:52;;;;;;;1.10;1.10;;;3.60;98.00;;;;;;5073142;28;20528;-65
2022/02/11 05:36:19;;;;;;;1.10;1.00;;;3.50;98.00;;;;;;5073853;28;20555;-64
2022/02/11 05:38:46;;;;;;;1.10;1.00;;;3.50;98.00;;;;;;5073556;28;21262;-64
2022/02/11 05:41:14;;;;;;;1.10;0.90;;;3.50;98.00;;;;;;5073059;28;20492;-64
2022/02/11 05:43:41;;;;;;;1.10;1.00;;;3.50;98.00;;;;;;5055085;28;20488;-64
2022/02/11 05:46:11;;;;;;;1.10;1.00;;;3.60;98.00;;;;;;5072938;28;20449;-63
2022/02/11 05:48:39;;;;;;;1.30;1.20;;;3.50;98.00;;;;;;5073671;28;20476;-64
2022/02/11 05:51:07;;;;;;;1.20;1.10;;;3.40;98.00;;;;;;5055961;28;20461;-63
2022/02/11 05:53:35;;;;;;;1.10;1.00;;;3.50;98.00;;;;;;5073801;28;20463;-64
2022/02/11 05:56:04;;;;;;;1.10;1.10;;;3.50;98.00;;;;;;5073361;28;20942;-63
2022/02/11 05:58:31;;;;;;;1.10;1.03;;;3.50;98.00;;;;;;5073564;28;20512;-64
2022/02/11 06:00:58;;;;;;;1.37;1.27;;;3.50;98.00;;;;;;5073761;28;20507;-64
2022/02/11 06:03:26;;;;;;;1.10;1.00;;;3.50;98.00;;;;;;5073542;28;21056;-64
2022/02/11 06:05:53;;;;;;;2.30;1.30;;;3.50;98.00;;;;;;5073317;28;20449;-64
2022/02/11 06:08:21;;;;;;;3.00;1.47;;;3.50;98.00;;;;;;5073605;28;20792;-64
2022/02/11 06:10:48;;;;;;;1.20;1.10;;;3.40;98.00;;;;;;5073472;28;20521;-64
2022/02/11 06:13:15;;;;;;;1.20;1.20;;;3.50;98.00;;;;;;5073534;28;20978;-65
2022/02/11 06:15:43;;;;;;;1.10;1.10;;;3.60;98.00;;;;;;5072963;28;20457;-64
2022/02/11 06:18:10;;;;;;;1.43;1.27;;;3.60;98.00;;;;;;5073158;28;20524;-64
2022/02/11 06:20:39;;;;;;;1.10;1.00;;;3.60;98.00;;;;;;5072675;28;20485;-64
2022/02/11 06:23:06;;;;;;;1.37;1.30;;;3.60;98.00;;;;;;5072736;28;20514;-65
2022/02/11 06:25:33;;;;;;;1.10;1.00;;;3.70;98.00;;;;;;5072857;28;20879;-64
2022/02/11 06:28:00;;;;;;;1.57;1.47;;;3.70;98.00;;;;;;5072455;28;20573;-64
2022/02/11 06:30:27;;;;;;;1.20;1.10;;;3.80;98.00;;;;;;5072599;28;20517;-64
2022/02/11 06:32:54;;;;;;;1.10;1.00;;;3.80;98.00;;;;;;5072649;28;20468;-64
2022/02/11 06:35:21;;;;;;;1.30;1.20;;;3.80;98.00;;;;;;5072493;28;20483;-64
2022/02/11 06:37:50;;;;;;;2.03;1.53;;;3.80;98.00;;;;;;5037962;28;21024;-64
2022/02/11 06:40:18;;;;;;;1.10;1.00;;;3.70;98.00;;;;;;5072501;28;20510;-64
2022/02/11 06:42:45;;;;;;;1.10;0.90;;;3.70;98.00;;;;;;5072558;28;20539;-64
2022/02/11 06:45:12;;;;;;;1.10;1.00;;;3.70;98.00;;;;;;5071747;28;20452;-64
2022/02/11 06:47:40;;;;;;;2.07;1.53;;;3.60;98.00;;;;;;5072028;28;20986;-64
2022/02/11 06:50:07;;;;;;;1.20;1.10;;;3.60;98.00;;;;;;5072254;28;20525;-65
2022/02/11 06:52:34;;;;;;;1.27;1.23;;;3.50;98.00;;;;;;5072346;28;20456;-64
2022/02/11 06:55:02;;;;;;;2.30;1.60;;;3.50;98.00;;;;;;5072256;28;20453;-65
2022/02/11 06:57:29;;;;;;;1.17;1.13;;;3.60;98.00;;;;;;5072310;28;20558;-64
2022/02/11 06:59:56;;;;;;;1.10;1.00;;;3.60;98.00;;;;;;5054556;28;20855;-64
2022/02/11 07:02:26;;;;;;;1.23;1.20;;;3.60;98.00;;;;;;5072292;28;20511;-64
2022/02/11 07:04:53;;;;;;;2.23;1.67;;;3.60;98.00;;;;;;5072280;28;20865;-64
2022/02/11 07:07:20;;;;;;;1.10;1.00;;;3.60;98.00;;;;;;5072290;28;20543;-64
2022/02/11 07:09:51;;;;;;;1.10;1.00;;;3.70;98.00;;;;;;5072396;28;20492;-64
2022/02/11 07:12:19;;;;;;;1.27;1.23;;;3.80;98.00;;;;;;5072272;28;20789;-64
2022/02/11 07:14:46;;;;;;;1.93;1.57;;;3.80;98.00;;;;;;5072030;28;20548;-65
2022/02/11 07:17:13;;;;;;;1.10;0.90;;;3.90;98.00;;;;;;5072032;28;20493;-64
2022/02/11 07:19:40;;;;;;;1.10;1.00;;;4.00;98.00;;;;;;5071933;28;20554;-64
2022/02/11 07:22:07;;;;;;;1.10;1.00;;;4.00;98.00;;;;;;5072218;28;20457;-64
2022/02/11 07:24:34;;;;;;;1.20;1.10;;;3.90;98.00;;;;;;5072014;28;20525;-64
2022/02/11 07:27:02;;;;;;;1.10;0.90;;;3.90;98.00;;;;;;5071900;28;20449;-64
2022/02/11 07:29:30;;;;;;;1.10;1.10;;;4.00;98.00;;;;;;5071686;28;20483;-64
2022/02/11 07:31:57;;;;;;;1.10;1.00;;;4.00;98.00;;;;;;5071853;28;20493;-65
2022/02/11 07:34:24;;;;;;;1.20;0.90;;;3.90;98.00;;;;;;5071832;28;21004;-64
2022/02/11 07:36:51;;;;;;;1.30;1.10;;;3.90;98.00;;;;;;5071824;28;20951;-64
2022/02/11 07:39:18;;;;;;;1.17;1.00;;;3.90;98.00;;;;;;5071543;28;20488;-64
2022/02/11 07:41:45;;;;;;;1.20;1.00;;;3.90;98.00;;;;;;5071891;28;20460;-64
2022/02/11 07:44:12;;;;;;;1.97;1.53;;;3.90;98.00;;;;;;5071535;28;20492;-64
2022/02/11 07:46:40;;;;;;;1.10;0.90;;;3.90;98.00;;;;;;5071550;28;20849;-64
2022/02/11 07:49:08;;;;;;;1.30;1.30;;;4.00;98.00;;;;;;5071533;28;20518;-65
2022/02/11 07:51:34;;;;;;;1.20;1.10;;;4.20;98.00;;;;;;5071494;28;20453;-64
2022/02/11 07:54:01;;;;;;;1.20;1.10;;;4.10;98.00;;;;;;5071267;28;20504;-64
2022/02/11 07:56:28;;;;;;;1.50;1.13;;;4.20;98.00;;;;;;5071289;28;20453;-64
2022/02/11 07:58:55;;;;;;;1.87;1.30;;;4.30;98.00;;;;;;5075181;28;20516;-65
2022/02/11 08:01:22;;;;;;;2.60;1.73;;;4.40;98.00;;;;;;5075690;28;20543;-64
2022/02/11 08:03:51;;;;;;;1.10;1.00;;;4.40;98.00;;;;;;5075481;28;20449;-65
2022/02/11 08:06:20;;;;;;;1.30;1.20;;;4.30;98.00;;;;;;5075479;28;21025;-63
2022/02/11 08:08:47;;;;;;;1.20;1.10;;;4.50;98.00;;;;;;5075095;28;20488;-62
2022/02/11 08:11:16;;;;;;;1.10;1.00;;;4.50;98.00;;;;;;5097600;28;20458;-65
2022/02/11 08:13:43;;;;;;;1.70;1.47;;;4.60;98.00;;;;;;5113626;28;20486;-65
2022/02/11 08:16:13;;;;;;;2.70;1.47;;;4.50;98.00;;;;;;5113570;28;20853;-65
2022/02/11 08:18:46;;;;;;;2.23;1.60;;;4.40;98.00;;;;;;5113043;28;20490;-65
2022/02/11 08:21:14;;;;;;;1.73;1.20;;;4.40;98.00;;;;;;5109380;28;20478;-63
2022/02/11 08:23:41;;;;;;;1.10;1.00;;;4.30;98.00;;;;;;5113139;28;20470;-63
2022/02/11 08:26:08;;;;;;;1.20;1.00;;;4.20;98.00;;;;;;5113180;28;20856;-64
2022/02/11 08:28:36;;;;;;;1.10;1.10;;;4.30;98.00;;;;;;5095062;28;20502;-64
2022/02/11 08:31:03;;;;;;;1.10;1.00;;;5.20;98.00;;;;;;5113004;28;20447;-66
2022/02/11 08:33:30;;;;;;;1.20;1.03;;;6.00;98.00;;;;;;5112991;28;20451;-66
2022/02/11 08:35:59;;;;;;;1.20;1.00;;;6.60;98.00;;;;;;5112820;28;20496;-68
2022/02/11 08:38:28;;;;;;;1.20;1.03;;;6.50;98.00;;;;;;5112678;28;20575;-66
2022/02/11 08:40:55;;;;;;;1.20;0.90;;;6.00;98.00;;;;;;5112722;28;21099;-65
2022/02/11 08:43:23;;;;;;;1.20;0.90;;;5.80;98.00;;;;;;5094701;28;21207;-67
2022/02/11 08:45:51;;;;;;;1.20;1.00;;;5.40;98.00;;;;;;5112748;28;20513;-64
2022/02/11 08:48:18;;;;;;;1.37;1.33;;;5.10;98.00;;;;;;5094615;28;20509;-66
2022/02/11 08:50:45;;;;;;;1.27;1.03;;;5.00;98.00;;;;;;5110549;28;20451;-66
2022/02/11 08:53:13;;;;;;;1.20;1.00;;;4.70;98.00;;;;;;5112620;28;20778;-65
2022/02/11 08:55:41;;;;;;;1.20;1.00;;;4.70;98.00;;;;;;5094310;28;20459;-66
2022/02/11 08:58:12;;;;;;;1.50;1.30;;;4.80;98.00;;;;;;5112534;28;20487;-66
2022/02/11 09:00:39;;;;;;;1.27;1.07;;;4.70;98.00;;;;;;5112770;28;20478;-66
2022/02/11 09:03:06;;;;;;;1.20;1.00;;;4.70;98.00;;;;;;5112320;28;20512;-67
2022/02/11 09:05:33;;;;;;;1.40;1.30;;;4.80;98.00;;;;;;5112796;28;20534;-65
2022/02/11 09:08:01;;;;;;;1.17;1.00;;;4.70;98.00;;;;;;5112135;28;20493;-66
2022/02/11 09:10:30;;;;;;;1.27;1.13;;;4.70;98.00;;;;;;5111210;28;20491;-63
2022/02/11 09:13:01;;;;;;;1.20;1.03;;;4.70;98.00;;;;;;5112474;28;20618;-64
2022/02/11 09:15:30;;;;;;;1.20;1.10;;;4.80;98.00;;;;;;5112003;28;20513;-63
2022/02/11 09:17:58;;;;;;;1.40;1.10;;;4.90;98.00;;;;;;5111739;28;20937;-63
2022/02/11 09:20:26;;;;;;;1.20;1.10;;;4.90;98.00;;;;;;5112227;28;20459;-65
2022/02/11 09:22:54;;;;;;;1.20;1.10;;;5.10;98.00;;;;;;5112214;28;20491;-63
2022/02/11 09:25:21;;;;;;;1.20;1.00;;;5.10;98.00;;;;;;5111694;28;20443;-62
2022/02/11 09:27:48;;;;;;;1.50;1.30;;;5.30;98.00;;;;;;5111720;28;20474;-64
2022/02/11 09:30:20;;;;;;;3.20;1.30;;;5.40;98.00;;;;;;5111777;28;20516;-64
2022/02/11 09:32:49;;;;;;;1.20;1.10;;;5.40;98.00;;;;;;5111788;28;20457;-64
2022/02/11 09:35:17;;;;;;;2.03;1.30;;;5.40;98.00;;;;;;5111596;28;20546;-64
2022/02/11 09:37:44;;;;;;;1.20;1.10;;;5.30;98.00;;;;;;5111694;28;20942;-65
2022/02/11 09:40:13;;;;;;;1.20;1.00;;;5.30;98.00;;;;;;5111611;28;20518;-62
2022/02/11 09:42:40;;;;;;;1.20;1.00;;;5.30;98.00;;;;;;5111487;28;20490;-65
2022/02/11 09:45:09;;;;;;;1.20;1.00;;;5.50;98.00;;;;;;5111418;28;20478;-62
2022/02/11 09:47:38;;;;;;;1.20;1.00;;;5.50;98.00;;;;;;5111118;28;20490;-65
2022/02/11 09:50:10;;;;;;;1.20;1.00;;;5.60;98.00;;;;;;5108840;28;20551;-63
2022/02/11 09:52:39;;;;;;;2.03;1.20;;;5.60;98.00;;;;;;5111398;28;20992;-65
2022/02/11 09:57:53;;;;;;;1.30;1.20;;;5.50;98.00;;;;;;5111482;28;20451;-64
2022/02/11 10:00:22;;;;;;;1.20;1.00;;;5.70;98.00;;;;;;5111136;28;20483;-64
2022/02/11 10:02:51;;;;;;;1.50;1.40;;;5.80;98.00;;;;;;5111317;28;20460;-63
2022/02/11 10:05:22;;;;;;;1.20;1.00;;;5.90;98.00;;;;;;5111382;28;20517;-62
2022/02/11 10:07:50;;;;;;;1.20;1.00;;;6.00;98.00;;;;;;5111301;28;20458;-63
2022/02/11 10:10:38;;;;;;;1.20;1.10;;;6.10;98.00;;;;;;5111324;28;20529;-63
2022/02/11 10:13:06;;;;;;;1.20;1.00;;;6.20;98.00;;;;;;5096588;28;20451;-64
2022/02/11 10:15:34;;;;;;;1.23;1.13;;;6.20;98.00;;;;;;5111253;28;20513;-63
2022/02/11 10:18:03;;;;;;;1.20;1.00;;;6.20;98.00;;;;;;5110877;28;20525;-63
2022/02/11 10:20:35;;;;;;;1.20;1.00;;;6.20;98.00;;;;;;5110866;28;20532;-63
2022/02/11 10:23:15;;;;;;;1.20;1.00;;;6.20;98.00;;;;;;5111320;28;20564;-63
2022/02/11 10:26:10;;;;;;;1.20;1.00;;;6.20;98.00;;;;;;5110923;28;20530;-63
2022/02/11 10:28:39;;;;;;;1.20;1.00;;;6.00;98.00;;;;;;5097113;28;20476;-64
2022/02/11 10:31:18;;;;;;;1.30;1.10;;;5.90;98.00;;;;;;5110524;28;20962;-63
2022/02/11 10:34:09;;;;;;;1.20;1.00;;;5.90;98.00;;;;;;5113316;28;20451;-63
2022/02/11 10:36:39;;;;;;;1.20;1.00;;;6.10;98.00;;;;;;5069972;28;20472;-63
2022/02/11 10:39:09;;;;;;;1.20;1.00;;;6.00;98.00;;;;;;5092404;28;20490;-64
2022/02/11 10:41:39;;;;;;;1.20;1.00;;;6.10;98.00;;;;;;5092839;28;20556;-63
2022/02/11 10:44:09;;;;;;;1.20;1.00;;;6.20;98.00;;;;;;5092550;28;20485;-64
2022/02/11 10:46:37;;;;;;;1.20;1.20;;;6.20;98.00;;;;;;5083707;28;20488;-64
2022/02/11 10:49:05;;;;;;;1.20;1.00;;;6.10;98.00;;;;;;5077511;28;20549;-64
2022/02/11 10:51:38;;;;;;;1.17;1.00;;;6.00;98.00;;;;;;5083438;28;20545;-63
2022/02/11 10:54:23;;;;;;;1.73;1.00;;;6.00;98.00;;;;;;5079939;28;20488;-65
2022/02/11 10:56:52;;;;;;;1.20;1.00;;;6.00;98.00;;;;;;5079219;28;20450;-64
2022/02/11 10:59:25;;;;;;;4.10;1.43;;;6.10;98.00;;;;;;5078008;28;20570;-64
2022/02/11 11:01:53;;;;;;;1.20;1.00;;;6.20;98.00;;;;;;5075521;28;20459;-63
2022/02/11 11:04:20;;;;;;;1.17;0.90;;;6.20;98.00;;;;;;5078453;28;20901;-64
2022/02/11 11:06:50;;;;;;;1.20;1.00;;;6.10;98.00;;;;;;5071172;28;20520;-63
2022/02/11 11:09:18;;;;;;;2.00;1.13;;;6.00;98.00;;;;;;5053736;28;20486;-63
2022/02/11 11:11:46;;;;;;;1.30;1.10;;;6.10;98.00;;;;;;5071214;28;20969;-63
2022/02/11 11:14:13;;;;;;;1.20;1.00;;;6.20;98.00;;;;;;5071949;28;20503;-64
2022/02/11 11:16:41;;;;;;;1.20;1.00;;;6.20;98.00;;;;;;5071855;28;20466;-64
2022/02/11 11:19:09;;;;;;;1.20;1.10;;;6.30;98.00;;;;;;5071772;28;20821;-65
2022/02/11 11:21:39;;;;;;;1.20;0.97;;;6.30;98.00;;;;;;5071861;28;20498;-65
2022/02/11 11:24:10;;;;;;;1.20;1.00;;;6.30;98.00;;;;;;5072134;28;20931;-63
2022/02/11 11:26:39;;;;;;;1.20;1.00;;;6.20;98.00;;;;;;5071870;28;20540;-66
2022/02/11 11:29:11;;;;;;;1.20;1.10;;;6.20;98.00;;;;;;5071867;28;20470;-65
2022/02/11 11:31:39;;;;;;;1.20;1.10;;;6.10;98.00;;;;;;5037634;28;20488;-63
2022/02/11 11:34:28;;;;;;;1.20;1.00;;;6.20;98.00;;;;;;5071858;28;20515;-63
2022/02/11 11:36:59;;;;;;;1.53;1.30;;;6.20;98.00;;;;;;5072047;28;21094;-64
2022/02/11 11:39:28;;;;;;;1.20;0.90;;;6.30;98.00;;;;;;5071821;28;20484;-64
2022/02/11 11:42:11;;;;;;;2.03;1.17;;;6.40;98.00;;;;;;5071953;28;20529;-63
2022/02/11 11:44:49;;;;;;;1.20;1.00;;;6.50;98.00;;;;;;5069880;28;20849;-64
2022/02/11 11:47:28;;;;;;;1.20;1.00;;;6.30;98.00;;;;;;5071911;28;20496;-64
2022/02/11 11:49:56;;;;;;;1.23;1.10;;;6.20;98.00;;;;;;5071702;28;20476;-64
2022/02/11 11:52:43;;;;;;;1.20;1.00;;;6.20;98.00;;;;;;5071579;28;20496;-63
2022/02/11 11:55:19;;;;;;;1.20;0.97;;;6.20;98.00;;;;;;5071561;28;20487;-65
2022/02/11 11:57:47;;;;;;;1.50;1.23;;;6.20;98.00;;;;;;5070853;28;20496;-63
2022/02/11 12:00:32;;;;;;;1.30;1.17;;;6.30;98.00;;;;;;5053494;28;20609;-65
2022/02/11 12:03:00;;;;;;;1.20;1.20;;;6.30;98.00;;;;;;5071436;28;20483;-64
2022/02/11 12:05:45;;;;;;;1.20;1.10;;;6.20;98.00;;;;;;5071153;28;20522;-64
2022/02/11 12:08:12;;;;;;;1.40;1.20;;;6.10;98.00;;;;;;5071645;28;20454;-64
2022/02/11 12:10:40;;;;;;;1.20;0.90;;;6.10;98.00;;;;;;5070613;28;20444;-63
2022/02/11 12:13:08;;;;;;;1.20;0.90;;;6.20;98.00;;;;;;5071303;28;21012;-63
2022/02/11 12:15:35;;;;;;;1.20;0.97;;;6.20;98.00;;;;;;5071471;28;20462;-64
2022/02/11 12:18:02;;;;;;;1.80;1.27;;;6.20;98.00;;;;;;5071388;28;20509;-63
2022/02/11 12:20:29;;;;;;;1.20;1.00;;;6.20;98.00;;;;;;5071072;28;20489;-63
2022/02/11 12:28:23;;;;;;;1.40;1.20;;;6.50;98.00;;;;;;5093165;28;20469;-65
2022/02/11 12:30:51;;;;;;;1.20;0.90;;;6.60;98.00;;;;;;5108835;28;20941;-66
2022/02/11 12:33:23;;;;;;;1.20;1.00;;;6.70;98.00;;;;;;5108949;28;21020;-65
2022/02/11 12:35:51;;;;;;;1.20;1.10;;;6.70;98.00;;;;;;5104108;28;20464;-65
2022/02/11 12:38:18;;;;;;;1.20;1.00;;;6.60;98.00;;;;;;5108922;28;20457;-66
2022/02/11 12:40:45;;;;;;;1.60;1.23;;;6.60;98.00;;;;;;5108798;28;21076;-66
2022/02/11 12:43:13;;;;;;;1.20;1.00;;;7.00;98.00;;;;;;5109629;28;20966;-66
2022/02/11 12:45:43;;;;;;;1.20;1.00;;;7.40;98.00;;;;;;5112697;28;20977;-65
2022/02/11 12:48:14;;;;;;;1.30;1.20;;;7.30;98.00;;;;;;5112646;28;21028;-64
2022/02/11 12:50:43;;;;;;;2.47;1.10;;;7.10;98.00;;;;;;5110588;28;20449;-64
2022/02/11 12:53:12;;;;;;;1.20;1.00;;;7.00;98.00;;;;;;5112680;28;20564;-65
2022/02/11 12:55:40;;;;;;;1.20;1.00;;;6.80;98.00;;;;;;5112390;28;20502;-64
2022/02/11 12:58:09;;;;;;;1.20;1.00;;;7.00;98.00;;;;;;5112050;28;20451;-64
2022/02/11 13:00:38;;;;;;;1.20;0.90;;;7.00;98.00;;;;;;5112319;28;20490;-64
2022/02/11 13:03:07;;;;;;;1.20;1.00;;;6.90;98.00;;;;;;5112922;28;20966;-64
2022/02/11 13:05:39;;;;;;;1.23;1.13;;;7.00;98.00;;;;;;5112468;28;21030;-64
2022/02/11 13:08:08;;;;;;;1.30;1.10;;;7.00;98.00;;;;;;5112350;28;20798;-64
2022/02/11 13:10:37;;;;;;;1.20;1.00;;;7.00;98.00;;;;;;5112506;28;20536;-64
2022/02/11 13:13:13;;;;;;;1.30;1.30;;;7.10;98.00;;;;;;5112490;28;20500;-63
2022/02/11 13:15:41;;;;;;;1.20;1.00;;;7.20;98.00;;;;;;5111932;28;20879;-65
2022/02/11 13:18:13;;;;;;;1.20;1.00;;;7.50;98.00;;;;;;5112661;28;20509;-65
2022/02/11 13:20:42;;;;;;;1.20;1.07;;;7.60;98.00;;;;;;5112150;28;20558;-65
2022/02/11 13:23:11;;;;;;;1.20;1.00;;;7.50;98.00;;;;;;5112040;28;20503;-65
2022/02/11 13:25:39;;;;;;;1.20;1.00;;;7.70;97.00;;;;;;5112066;28;20472;-65
2022/02/11 13:28:08;;;;;;;1.20;1.00;;;7.90;96.30;;;;;;5108071;28;20473;-64
2022/02/11 13:30:36;;;;;;;1.20;1.00;;;8.00;96.30;;;;;;5111447;28;20484;-64
2022/02/11 13:33:21;;;;;;;1.20;1.00;;;8.00;96.30;;;;;;5096404;28;20488;-65
2022/02/11 13:35:48;;;;;;;1.20;1.00;;;7.90;96.60;;;;;;5114317;28;20487;-65
2022/02/11 13:38:23;;;;;;;1.40;1.10;;;8.40;95.80;;;;;;5114295;28;20867;-64
2022/02/11 13:40:54;;;;;;;1.20;1.10;;;8.80;95.80;;;;;;5114058;28;20560;-64
2022/02/11 13:43:22;;;;;;;1.83;1.30;;;8.50;94.70;;;;;;5114177;28;20947;-63
2022/02/11 13:45:51;;;;;;;1.20;1.00;;;8.20;94.70;;;;;;5114245;28;20514;-63
2022/02/11 13:48:22;;;;;;;1.50;1.43;;;8.00;97.70;;;;;;5114215;28;20497;-64
2022/02/11 13:51:02;;;;;;;1.23;1.20;;;7.90;97.20;;;;;;5114263;28;20546;-64
2022/02/11 13:53:32;;;;;;;1.20;1.00;;;7.90;98.00;;;;;;5114121;28;20547;-65
2022/02/11 13:55:59;;;;;;;1.30;1.10;;;7.80;98.00;;;;;;5095442;28;20470;-64
2022/02/11 13:58:30;;;;;;;1.20;1.10;;;7.80;98.00;;;;;;5114136;28;20912;-64
2022/02/11 14:00:58;;;;;;;1.20;1.00;;;7.80;98.00;;;;;;5113945;28;20494;-64
2022/02/11 14:03:29;;;;;;;1.47;1.10;;;7.90;97.90;;;;;;5113994;28;20913;-63
2022/02/11 14:06:00;;;;;;;1.20;1.00;;;7.80;98.00;;;;;;5113977;28;20491;-63
2022/02/11 14:08:41;;;;;;;1.20;1.00;;;7.80;96.90;;;;;;5113900;28;20465;-63
2022/02/11 14:11:09;;;;;;;1.20;1.00;;;7.70;98.00;;;;;;5113889;28;20457;-63
2022/02/11 14:13:37;;;;;;;1.20;1.00;;;7.60;97.80;;;;;;5114051;28;20455;-63
2022/02/11 14:16:05;;;;;;;1.20;1.00;;;7.40;97.00;;;;;;5113848;28;20490;-63
2022/02/11 14:18:34;;;;;;;1.20;1.00;;;7.20;96.90;;;;;;5113848;28;20455;-64
2022/02/11 14:21:01;;;;;;;1.20;1.10;;;7.10;97.80;;;;;;5113753;28;20973;-63
2022/02/11 14:23:28;;;;;;;1.20;1.00;;;7.10;98.00;;;;;;5095393;28;20464;-63
2022/02/11 14:25:55;;;;;;;1.20;0.90;;;7.40;98.00;;;;;;5113736;28;20536;-65
2022/02/11 14:28:25;;;;;;;1.20;1.00;;;8.00;96.90;;;;;;5113484;28;20506;-63
2022/02/11 14:30:53;;;;;;;1.20;1.10;;;8.10;98.00;;;;;;5113466;28;20456;-63
2022/02/11 14:33:21;;;;;;;1.30;1.10;;;8.10;97.10;;;;;;5113489;28;20458;-64
2022/02/11 14:35:50;;;;;;;1.20;1.00;;;7.80;95.50;;;;;;5113481;28;20490;-63
2022/02/11 14:38:17;;;;;;;1.20;1.00;;;7.50;97.80;;;;;;5113476;28;21035;-65
2022/02/11 14:43:25;;;;;;;1.20;1.00;;;7.20;98.00;;;;;;5112291;28;20457;-65
2022/02/11 14:45:52;;;;;;;1.20;1.00;;;7.10;98.00;;;;;;5112979;28;20546;-65
2022/02/11 14:48:19;;;;;;;1.20;1.00;;;6.90;98.00;;;;;;5113222;28;20489;-63
2022/02/11 14:50:46;;;;;;;1.20;1.00;;;6.80;98.00;;;;;;5112959;28;20823;-65
2022/02/11 14:53:15;;;;;;;1.80;1.40;;;6.80;98.00;;;;;;5112900;28;20511;-64
2022/02/11 14:55:42;;;;;;;1.20;1.00;;;6.80;98.00;;;;;;5112571;28;20493;-64
2022/02/11 14:58:09;;;;;;;1.20;1.17;;;6.60;98.00;;;;;;5112883;28;20510;-63
2022/02/11 15:00:36;;;;;;;1.30;1.20;;;6.60;98.00;;;;;;5094616;28;20477;-65
2022/02/11 15:03:05;;;;;;;1.20;1.10;;;6.50;98.00;;;;;;5112707;28;20863;-64
2022/02/11 15:05:32;;;;;;;1.20;1.10;;;6.50;98.00;;;;;;5112794;28;20505;-64
2022/02/11 15:08:02;;;;;;;1.20;1.00;;;6.50;98.00;;;;;;5111748;28;20491;-63
2022/02/11 15:10:30;;;;;;;1.20;1.00;;;6.40;98.00;;;;;;5112713;28;20544;-64
2022/02/11 15:12:57;;;;;;;1.20;1.00;;;6.50;98.00;;;;;;5112584;28;20548;-64
2022/02/11 15:15:25;;;;;;;1.20;1.00;;;6.40;98.00;;;;;;5112430;28;20847;-65
2022/02/11 15:17:52;;;;;;;1.20;1.00;;;6.40;98.00;;;;;;5112554;28;20933;-63
2022/02/11 15:20:19;;;;;;;1.20;1.00;;;6.30;98.00;;;;;;5094174;28;20548;-65
2022/02/11 15:22:46;;;;;;;1.20;1.00;;;6.30;98.00;;;;;;5112621;28;20517;-64
2022/02/11 15:25:13;;;;;;;1.20;0.90;;;6.40;98.00;;;;;;5112601;28;20502;-63
2022/02/11 15:27:43;;;;;;;1.20;1.00;;;6.40;98.00;;;;;;5112328;28;20878;-62
2022/02/11 15:30:14;;;;;;;1.20;1.00;;;6.40;98.00;;;;;;5112662;28;20452;-64
2022/02/11 15:32:42;;;;;;;1.20;1.00;;;6.40;98.00;;;;;;5112617;28;20455;-65
2022/02/11 15:35:09;;;;;;;1.20;1.00;;;6.40;98.00;;;;;;5112410;28;20461;-64
2022/02/11 15:37:36;;;;;;;1.20;0.90;;;6.50;98.00;;;;;;5112413;28;20508;-63
2022/02/11 15:40:05;;;;;;;2.60;1.73;;;6.40;98.00;;;;;;5112273;28;20560;-65
2022/02/11 15:42:32;;;;;;;1.20;1.00;;;6.30;98.00;;;;;;5112370;28;20451;-64
2022/02/11 15:45:06;;;;;;;8.67;1.30;;;6.30;98.00;;;;;;5112353;28;20958;-64
2022/02/11 15:47:33;;;;;;;1.17;1.00;;;6.30;98.00;;;;;;5112132;28;20461;-64
2022/02/11 15:50:03;;;;;;;1.20;1.00;;;6.20;98.00;;;;;;5112291;28;20499;-63
2022/02/11 15:52:31;;;;;;;1.20;1.00;;;6.20;98.00;;;;;;5094028;28;20851;-64
2022/02/11 15:54:58;;;;;;;1.30;1.20;;;6.20;98.00;;;;;;5112346;28;20954;-63
2022/02/11 15:57:25;;;;;;;1.20;1.03;;;6.20;98.00;;;;;;5111898;28;20476;-64
2022/02/11 15:59:52;;;;;;;1.20;1.00;;;6.20;98.00;;;;;;5112128;28;20811;-64
2022/02/11 16:02:20;;;;;;;1.30;1.13;;;6.20;98.00;;;;;;5111928;28;20569;-63
2022/02/11 16:04:47;;;;;;;1.53;1.20;;;6.30;98.00;;;;;;5111257;28;21057;-64
2022/02/11 16:07:15;;;;;;;1.20;1.00;;;6.30;98.00;;;;;;5093907;28;20478;-64
2022/02/11 16:09:43;;;;;;;1.20;1.00;;;6.20;98.00;;;;;;5112068;28;20534;-65
2022/02/11 16:12:11;;;;;;;1.30;1.10;;;6.10;98.00;;;;;;5111801;28;20494;-64
2022/02/11 16:14:39;;;;;;;1.20;1.00;;;6.10;98.00;;;;;;5094105;28;20456;-63
2022/02/11 16:17:10;;;;;;;1.20;1.00;;;6.20;98.00;;;;;;5111807;28;20523;-65
2022/02/11 16:19:40;;;;;;;1.20;1.00;;;6.20;98.00;;;;;;5102971;28;20492;-64
2022/02/11 16:22:09;;;;;;;1.20;1.10;;;6.20;98.00;;;;;;5096548;28;20989;-65
2022/02/11 16:24:37;;;;;;;1.20;1.00;;;6.30;98.00;;;;;;5096595;28;20537;-64
2022/02/11 16:27:05;;;;;;;1.30;1.10;;;6.30;98.00;;;;;;5112420;28;20451;-65
2022/02/11 16:29:34;;;;;;;1.30;1.20;;;6.30;98.00;;;;;;5094122;28;20466;-66
2022/02/11 16:32:02;;;;;;;1.87;1.33;;;6.30;98.00;;;;;;5112801;28;20458;-64
2022/02/11 16:34:29;;;;;;;1.20;0.90;;;6.20;98.00;;;;;;5113133;28;20482;-66
2022/02/11 16:36:57;;;;;;;1.20;1.00;;;6.00;98.00;;;;;;5113121;28;20459;-67
2022/02/11 16:39:25;;;;;;;1.20;1.00;;;5.90;98.00;;;;;;5096335;28;20521;-65
2022/02/11 16:41:52;;;;;;;1.20;1.00;;;5.80;98.00;;;;;;5112884;28;20532;-65
2022/02/11 16:44:19;;;;;;;1.20;1.00;;;5.70;98.00;;;;;;5096154;28;20511;-66
2022/02/11 16:46:47;;;;;;;1.20;1.10;;;5.70;98.00;;;;;;5113099;28;20552;-64
2022/02/11 16:49:17;;;;;;;1.30;1.30;;;5.60;98.00;;;;;;5111731;28;20478;-67